20 | 10 | 2021

Daten Vortag

Klimadaten von 10m Höhe gemessen, Station 

Datum / Zeit Intervall min Luftfeuchte % Temperatur °C Absoluter Luftdruck hPa Wind m/s Windböhen m/s Wind Richtung Relative Luftdruck hPa Taupunkt °C Windchill °C Niederschlag mm
19-10-2021 00:13 5 78 10.7 1019.8 1.1 1.1 SE 1021.3 7.0 10.7 0.0
19-10-2021 00:18 5 77 10.7 1019.8 2.5 3.6 SE 1021.3 6.8 10.7 0.0
19-10-2021 00:23 5 77 10.7 1019.4 0.0 1.1 SE 1020.9 6.8 10.7 0.0
19-10-2021 00:28 5 77 10.6 1019.4 1.1 3.6 SE 1020.9 6.7 10.6 0.0
19-10-2021 00:33 5 78 10.5 1019.2 1.1 3.6 S 1020.7 6.8 10.5 0.0
19-10-2021 00:38 5 78 10.5 1019.3 1.1 3.6 SE 1020.8 6.8 10.5 0.0
19-10-2021 00:43 5 78 10.3 1019.4 1.1 2.5 SE 1020.9 6.6 10.3 0.0
19-10-2021 00:48 5 78 10.1 1019.4 0.0 1.1 SE 1020.9 6.5 10.1 0.0
19-10-2021 00:53 5 79 10.0 1019.2 0.0 1.1 E 1020.7 6.5 10.0 0.0
19-10-2021 00:58 5 78 9.9 1019.2 0.0 0.0 NE 1020.7 6.3 9.9 0.0
19-10-2021 01:03 5 79 9.7 1019.1 1.1 2.5 S 1020.6 6.2 9.7 0.0
19-10-2021 01:08 5 80 9.6 1019.0 2.5 3.6 E 1020.5 6.3 9.6 0.0
19-10-2021 01:13 5 80 9.5 1019.3 0.0 0.0 SE 1020.8 6.2 9.5 0.0
19-10-2021 01:18 5 80 9.4 1019.3 1.1 1.1 SE 1020.8 6.1 9.4 0.0
19-10-2021 01:23 5 80 9.3 1019.4 0.0 1.1 SE 1020.9 6.0 9.3 0.0
19-10-2021 01:28 5 80 9.1 1019.2 0.0 0.0 SE 1020.7 5.8 9.1 0.0
19-10-2021 01:33 5 81 9.1 1019.2 0.0 0.0 SE 1020.7 6.0 9.1 0.0
19-10-2021 01:38 5 81 8.9 1019.1 0.0 0.0 SE 1020.6 5.8 8.9 0.0
19-10-2021 01:43 5 81 9.1 1019.0 1.1 2.5 S 1020.5 6.0 9.1 0.0
19-10-2021 01:48 5 82 9.1 1019.0 0.0 1.1 E 1020.5 6.2 9.1 0.0
19-10-2021 01:53 5 82 9.1 1018.9 0.0 0.0 S 1020.4 6.2 9.1 0.0
19-10-2021 01:58 5 82 8.8 1019.0 0.0 0.0 SW 1020.5 5.9 8.8 0.0
19-10-2021 02:03 5 82 9.0 1019.0 0.0 0.0 SW 1020.5 6.1 9.0 0.0
19-10-2021 02:08 5 82 8.9 1019.2 0.0 0.0 S 1020.7 6.0 8.9 0.0
19-10-2021 02:13 5 82 8.7 1019.2 0.0 0.0 S 1020.7 5.8 8.7 0.0
19-10-2021 02:18 5 82 8.2 1019.2 0.0 1.1 S 1020.7 5.3 8.2 0.0
19-10-2021 02:23 5 82 8.4 1019.2 0.0 1.1 S 1020.7 5.5 8.4 0.0
19-10-2021 02:28 5 82 8.4 1019.1 0.0 1.1 SE 1020.6 5.5 8.4 0.0
19-10-2021 02:33 5 83 8.5 1019.0 0.0 2.5 S 1020.5 5.8 8.5 0.0
19-10-2021 02:38 5 84 8.7 1018.9 1.1 5.0 SE 1020.4 6.2 8.7 0.0
19-10-2021 02:43 5 85 8.8 1018.9 1.1 2.5 SE 1020.4 6.4 8.8 0.0
19-10-2021 02:48 5 85 9.0 1018.8 1.1 2.5 SE 1020.3 6.6 9.0 0.0
19-10-2021 02:53 5 85 9.0 1018.9 2.5 2.5 SW 1020.4 6.6 9.0 0.0
19-10-2021 02:58 5 85 9.1 1018.8 2.5 3.6 SE 1020.3 6.7 9.1 0.0
19-10-2021 03:03 5 85 9.1 1018.6 2.5 3.6 S 1020.1 6.7 9.1 0.0
19-10-2021 03:08 5 84 9.1 1018.5 1.1 2.5 SE 1020.0 6.6 9.1 0.0
19-10-2021 03:13 5 84 9.2 1018.8 2.5 5.0 SE 1020.3 6.6 9.2 0.0
19-10-2021 03:18 5 84 9.1 1018.6 2.5 3.6 SE 1020.1 6.6 9.1 0.0
19-10-2021 03:23 5 84 9.4 1018.4 2.5 5.0 SE 1019.9 6.8 9.4 0.0
19-10-2021 03:28 5 84 9.5 1018.4 1.1 2.5 SE 1019.9 6.9 9.5 0.0
19-10-2021 03:33 5 84 9.5 1018.6 3.6 5.0 SE 1020.1 6.9 9.5 0.0
19-10-2021 03:38 5 83 9.4 1018.4 1.1 2.5 SE 1019.9 6.7 9.4 0.0
19-10-2021 03:43 5 83 9.5 1018.6 1.1 1.1 SE 1020.1 6.8 9.5 0.0
19-10-2021 03:48 5 83 9.4 1018.7 1.1 1.1 SE 1020.2 6.7 9.4 0.0
19-10-2021 03:53 5 83 9.3 1018.3 1.1 1.1 E 1019.8 6.6 9.3 0.0
19-10-2021 03:58 5 83 9.2 1018.3 1.1 3.6 E 1019.8 6.5 9.2 0.0
19-10-2021 04:03 5 83 9.3 1018.2 1.1 2.5 SE 1019.7 6.6 9.3 0.0
19-10-2021 04:08 5 83 9.2 1018.3 0.0 0.0 S 1019.8 6.5 9.2 0.0
19-10-2021 04:13 5 83 9.1 1018.5 0.0 0.0 SE 1020.0 6.4 9.1 0.0
19-10-2021 04:18 5 83 9.0 1018.0 1.1 2.5 S 1019.5 6.3 9.0 0.0
19-10-2021 04:23 5 84 9.0 1017.8 3.6 6.1 S 1019.3 6.5 9.0 0.0
19-10-2021 04:28 5 84 9.0 1017.8 1.1 2.5 E 1019.3 6.5 9.0 0.0
19-10-2021 04:33 5 84 9.1 1017.8 0.0 1.1 SE 1019.3 6.6 9.1 0.0
19-10-2021 04:38 5 85 9.0 1017.9 1.1 2.5 SE 1019.4 6.6 9.0 0.0
19-10-2021 04:43 5 85 9.0 1017.8 0.0 1.1 S 1019.3 6.6 9.0 0.0
19-10-2021 04:48 5 85 9.0 1017.7 0.0 1.1 SE 1019.2 6.6 9.0 0.0
19-10-2021 04:53 5 85 9.1 1017.7 0.0 1.1 SE 1019.2 6.7 9.1 0.0
19-10-2021 04:58 5 85 9.1 1017.9 2.5 3.6 SE 1019.4 6.7 9.1 0.0
19-10-2021 05:03 5 85 9.2 1017.5 1.1 2.5 S 1019.0 6.8 9.2 0.0
19-10-2021 05:08 5 85 9.2 1017.5 1.1 2.5 S 1019.0 6.8 9.2 0.0
19-10-2021 05:13 5 86 9.3 1017.3 1.1 2.5 S 1018.8 7.1 9.3 0.0
19-10-2021 05:18 5 86 9.2 1017.4 2.5 3.6 SE 1018.9 7.0 9.2 0.0
19-10-2021 05:23 5 86 9.3 1017.3 1.1 2.5 SE 1018.8 7.1 9.3 0.0
19-10-2021 05:28 5 86 9.3 1017.3 0.0 1.1 S 1018.8 7.1 9.3 0.0
19-10-2021 05:33 5 86 9.3 1017.4 3.6 6.1 S 1018.9 7.1 9.3 0.0
19-10-2021 05:38 5 86 9.4 1017.4 3.6 6.1 S 1018.9 7.2 9.4 0.0
19-10-2021 05:43 5 86 9.4 1017.1 2.5 3.6 S 1018.6 7.2 9.4 0.0
19-10-2021 05:48 5 86 9.5 1017.3 1.1 2.5 S 1018.8 7.3 9.5 0.0
19-10-2021 05:53 5 86 9.5 1017.4 1.1 2.5 SE 1018.9 7.3 9.5 0.0
19-10-2021 05:58 5 86 9.5 1017.5 2.5 3.6 SE 1019.0 7.3 9.5 0.0
19-10-2021 06:03 5 85 9.5 1017.4 0.0 1.1 S 1018.9 7.1 9.5 0.0
19-10-2021 06:08 5 85 9.5 1017.3 0.0 0.0 S 1018.8 7.1 9.5 0.0
19-10-2021 06:13 5 85 9.5 1017.2 0.0 0.0 E 1018.7 7.1 9.5 0.0
19-10-2021 06:18 5 85 9.5 1017.3 0.0 0.0 SSW 1018.8 7.1 9.5 0.0
19-10-2021 06:23 5 85 9.6 1017.1 2.5 3.6 S 1018.6 7.2 9.6 0.0
19-10-2021 06:28 5 85 9.7 1017.3 3.6 6.1 S 1018.8 7.3 9.7 0.0
19-10-2021 06:33 5 85 9.7 1017.0 2.5 3.6 SE 1018.5 7.3 9.7 0.0
19-10-2021 06:38 5 85 9.7 1016.9 1.1 2.5 S 1018.4 7.3 9.7 0.0
19-10-2021 06:43 5 85 9.8 1016.8 2.5 3.6 S 1018.3 7.4 9.8 0.0
19-10-2021 06:48 5 85 9.8 1016.7 1.1 2.5 SE 1018.2 7.4 9.8 0.0
19-10-2021 06:53 5 85 9.9 1016.7 2.5 3.6 SE 1018.2 7.5 9.9 0.0
19-10-2021 06:58 5 85 9.8 1016.7 3.6 6.1 SE 1018.2 7.4 9.8 0.0
19-10-2021 07:03 5 85 10.0 1016.7 3.6 6.1 SE 1018.2 7.6 10.0 0.0
19-10-2021 07:08 5 84 10.0 1016.6 1.1 2.5 S 1018.1 7.4 10.0 0.0
19-10-2021 07:13 5 84 9.9 1016.7 0.0 1.1 E 1018.2 7.3 9.9 0.0
19-10-2021 07:18 5 84 9.9 1016.7 2.5 3.6 S 1018.2 7.3 9.9 0.0
19-10-2021 07:23 5 84 10.0 1017.2 3.6 6.1 SW 1018.7 7.4 10.0 0.0
19-10-2021 07:28 5 84 10.0 1016.9 1.1 2.5 S 1018.4 7.4 10.0 0.0
19-10-2021 07:33 5 84 10.0 1017.3 0.0 1.1 SE 1018.8 7.4 10.0 0.0
19-10-2021 07:38 5 84 9.7 1016.9 1.1 2.5 SE 1018.4 7.1 9.7 0.0
19-10-2021 07:43 5 84 10.0 1016.8 2.5 3.6 SE 1018.3 7.4 10.0 0.0
19-10-2021 07:48 5 84 10.0 1017.1 1.1 2.5 S 1018.6 7.4 10.0 0.0
19-10-2021 07:53 5 84 10.0 1016.8 2.5 3.6 SE 1018.3 7.4 10.0 0.0
19-10-2021 07:58 5 84 9.6 1016.9 5.0 6.1 E 1018.4 7.0 9.6 0.0
19-10-2021 08:03 5 84 10.0 1016.8 1.1 2.5 S 1018.3 7.4 10.0 0.0
19-10-2021 08:08 5 84 10.1 1017.0 6.1 8.6 S 1018.5 7.5 10.1 0.0
19-10-2021 08:13 5 84 10.1 1016.7 5.0 7.2 S 1018.2 7.5 10.1 0.0
19-10-2021 08:18 5 84 9.9 1016.9 1.1 2.5 SE 1018.4 7.3 9.9 0.0
19-10-2021 08:23 5 84 10.2 1016.6 2.5 5.0 SSE 1018.1 7.6 10.2 0.0
19-10-2021 08:28 5 84 10.2 1016.5 2.5 3.6 S 1018.0 7.6 10.2 0.0
19-10-2021 08:33 5 84 10.3 1016.3 5.0 6.1 SSW 1017.8 7.7 10.3 0.0
19-10-2021 08:38 5 84 10.3 1016.4 3.6 6.1 S 1017.9 7.7 10.3 0.0
19-10-2021 08:43 5 84 10.3 1016.3 3.6 5.0 E 1017.8 7.7 10.3 0.0
19-10-2021 08:48 5 84 10.4 1016.4 1.1 3.6 SE 1017.9 7.8 10.4 0.0
19-10-2021 08:53 5 84 10.4 1016.1 2.5 5.0 S 1017.6 7.8 10.4 0.0
19-10-2021 08:58 5 84 10.3 1016.2 1.1 2.5 S 1017.7 7.7 10.3 0.0
19-10-2021 09:03 5 84 10.5 1016.3 1.1 2.5 S 1017.8 7.9 10.5 0.0
19-10-2021 09:08 5 84 10.6 1016.2 1.1 3.6 S 1017.7 8.0 10.6 0.0
19-10-2021 09:13 5 84 10.7 1016.5 1.1 2.5 S 1018.0 8.1 10.7 0.0
19-10-2021 09:18 5 83 10.7 1016.4 1.1 2.5 SE 1017.9 7.9 10.7 0.0
19-10-2021 09:23 5 83 10.8 1016.4 2.5 5.0 S 1017.9 8.0 10.8 0.0
19-10-2021 09:28 5 83 10.9 1016.5 2.5 3.6 S 1018.0 8.1 10.9 0.0
19-10-2021 09:33 5 83 10.9 1016.4 2.5 3.6 SSW 1017.9 8.1 10.9 0.0
19-10-2021 09:38 5 83 10.9 1016.6 1.1 3.6 SE 1018.1 8.1 10.9 0.0
19-10-2021 09:43 5 83 11.0 1016.3 2.5 3.6 SE 1017.8 8.2 11.0 0.0
19-10-2021 09:48 5 83 11.2 1016.3 6.1 8.6 S 1017.8 8.4 11.2 0.0
19-10-2021 09:53 5 82 11.4 1016.1 5.0 6.1 SSE 1017.6 8.5 11.4 0.0
19-10-2021 09:58 5 82 11.5 1016.0 3.6 5.0 SSE 1017.5 8.5 11.5 0.0
19-10-2021 10:03 5 82 11.6 1016.2 1.1 2.5 SW 1017.7 8.6 11.6 0.0
19-10-2021 10:08 5 81 11.8 1016.4 5.0 7.2 SE 1017.9 8.7 11.8 0.0
19-10-2021 10:13 5 81 11.8 1016.4 2.5 3.6 S 1017.9 8.7 11.8 0.0
19-10-2021 10:18 5 81 11.9 1016.2 1.1 3.6 S 1017.7 8.8 11.9 0.0
19-10-2021 10:23 5 81 12.0 1016.3 2.5 3.6 SE 1017.8 8.9 12.0 0.0
19-10-2021 10:28 5 81 12.2 1016.2 2.5 3.6 SSE 1017.7 9.1 12.2 0.0
19-10-2021 10:33 5 81 12.3 1016.2 2.5 3.6 SW 1017.7 9.1 12.3 0.0
19-10-2021 10:38 5 80 12.4 1015.7 5.0 7.2 S 1017.2 9.1 12.4 0.0
19-10-2021 10:43 5 77 12.5 1016.1 5.0 6.1 S 1017.6 8.6 12.5 0.0
19-10-2021 10:48 5 76 12.7 1016.1 3.6 6.1 SE 1017.6 8.6 12.7 0.0
19-10-2021 10:53 5 75 12.7 1015.9 5.0 7.2 SW 1017.4 8.4 12.7 0.0
19-10-2021 10:58 5 75 12.8 1015.7 6.1 7.2 S 1017.2 8.5 12.8 0.0
19-10-2021 11:03 5 75 12.8 1016.0 6.1 7.2 SW 1017.5 8.5 12.8 0.0
19-10-2021 11:08 5 75 12.9 1015.8 9.7 11.2 S 1017.3 8.6 10.6 0.0
19-10-2021 11:13 5 76 12.9 1015.7 6.1 8.6 S 1017.2 8.8 12.9 0.0
19-10-2021 11:18 5 75 13.0 1015.9 8.6 11.2 SW 1017.4 8.7 11.3 0.0
19-10-2021 11:23 5 75 13.2 1016.0 2.5 5.0 SE 1017.5 8.9 13.2 0.0
19-10-2021 11:28 5 75 13.2 1016.0 8.6 11.2 SSE 1017.5 8.9 11.5 0.0
19-10-2021 11:33 5 75 13.3 1015.9 2.5 3.6 S 1017.4 9.0 13.3 0.0
19-10-2021 11:38 5 75 13.5 1015.9 3.6 5.0 S 1017.4 9.2 13.5 0.0
19-10-2021 11:43 5 75 13.6 1015.7 2.5 5.0 S 1017.2 9.3 13.6 0.0
19-10-2021 11:48 5 75 13.7 1015.9 7.2 9.7 SE 1017.4 9.4 12.8 0.0
19-10-2021 11:53 5 74 13.7 1016.0 5.0 7.2 S 1017.5 9.2 13.7 0.0
19-10-2021 11:58 5 75 13.8 1016.0 1.1 2.5 S 1017.5 9.5 13.8 0.0
19-10-2021 12:03 5 75 13.7 1015.9 1.1 3.6 S 1017.4 9.4 13.7 0.0
19-10-2021 12:08 5 75 13.6 1016.0 3.6 5.0 SSE 1017.5 9.3 13.6 0.0
19-10-2021 12:13 5 75 13.5 1015.9 2.5 3.6 SE 1017.4 9.2 13.5 0.0
19-10-2021 12:18 5 76 13.8 1016.1 1.1 2.5 S 1017.6 9.7 13.8 0.0
19-10-2021 12:23 5 77 13.8 1015.9 6.1 7.2 SSE 1017.4 9.9 13.8 0.0
19-10-2021 12:28 5 76 13.6 1015.6 2.5 3.6 SE 1017.1 9.5 13.6 0.0
19-10-2021 12:33 5 77 13.8 1015.5 5.0 8.6 S 1017.0 9.9 13.8 0.0
19-10-2021 12:38 5 77 14.0 1015.5 6.1 8.6 SE 1017.0 10.0 14.0 0.0
19-10-2021 12:46 5 76 13.8 1015.6 5.0 7.2 S 1017.1 9.7 13.8 0.0
19-10-2021 12:51 5 76 13.9 1015.4 2.5 3.6 S 1016.9 9.8 13.9 0.0
19-10-2021 12:56 5 76 14.0 1015.2 6.1 8.6 SW 1016.7 9.9 14.0 0.0
19-10-2021 13:01 5 76 14.5 1015.2 3.6 5.0 SSE 1016.7 10.3 14.5 0.0
19-10-2021 13:06 5 75 14.2 1015.2 5.0 7.2 SW 1016.7 9.9 14.2 0.0
19-10-2021 13:11 5 75 14.3 1014.8 3.6 6.1 SW 1016.3 9.9 14.3 0.0
19-10-2021 13:16 5 75 14.3 1014.7 3.6 5.0 S 1016.2 9.9 14.3 0.0
19-10-2021 13:21 5 75 14.6 1014.7 3.6 6.1 S 1016.2 10.2 14.6 0.0
19-10-2021 13:26 5 75 14.3 1014.7 8.6 13.3 S 1016.2 9.9 12.7 0.0
19-10-2021 13:31 5 75 14.3 1014.5 2.5 5.0 S 1016.0 9.9 14.3 0.0
19-10-2021 13:36 5 75 14.3 1014.3 5.0 8.6 SE 1015.8 9.9 14.3 0.0
19-10-2021 13:41 5 75 14.6 1014.3 3.6 5.0 SE 1015.8 10.2 14.6 0.0
19-10-2021 13:46 5 75 14.2 1014.3 5.0 7.2 SW 1015.8 9.9 14.2 0.0
19-10-2021 13:51 5 75 14.2 1014.3 5.0 6.1 SE 1015.8 9.9 14.2 0.0
19-10-2021 13:56 5 75 14.2 1014.1 6.1 11.2 S 1015.6 9.9 14.2 0.0
19-10-2021 14:01 5 76 14.1 1014.2 8.6 9.7 S 1015.7 10.0 12.5 0.0
19-10-2021 14:06 5 76 14.1 1014.1 7.2 11.2 E 1015.6 10.0 13.2 0.0
19-10-2021 14:11 5 76 14.2 1013.9 6.1 8.6 S 1015.4 10.0 14.2 0.0
19-10-2021 14:16 5 76 14.2 1013.9 2.5 5.0 SW 1015.4 10.0 14.2 0.0
19-10-2021 14:21 5 77 14.7 1013.8 6.1 8.6 S 1015.3 10.7 14.7 0.0
19-10-2021 14:26 5 76 14.4 1013.7 5.0 9.7 S 1015.2 10.2 14.4 0.0
19-10-2021 14:31 5 76 14.4 1013.5 6.1 7.2 S 1015.0 10.2 14.4 0.0
19-10-2021 14:36 5 76 14.5 1013.6 7.2 8.6 SW 1015.1 10.3 13.6 0.0
19-10-2021 14:41 5 76 14.9 1013.6 9.7 14.8 S 1015.1 10.7 12.9 0.0
19-10-2021 14:46 5 75 14.6 1013.7 7.2 11.2 S 1015.2 10.2 13.7 0.0
19-10-2021 14:51 5 75 14.6 1013.4 7.2 9.7 S 1014.9 10.2 13.7 0.0
19-10-2021 14:56 5 75 14.6 1013.7 6.1 7.2 E 1015.2 10.2 14.6 0.0
19-10-2021 15:01 5 76 14.7 1013.6 6.1 9.7 S 1015.1 10.5 14.7 0.0
19-10-2021 15:06 5 76 14.7 1013.5 6.1 11.2 S 1015.0 10.5 14.7 0.0
19-10-2021 15:11 5 76 14.8 1013.7 5.0 7.2 S 1015.2 10.6 14.8 0.0
19-10-2021 15:16 5 76 14.8 1013.6 5.0 7.2 SSW 1015.1 10.6 14.8 0.0
19-10-2021 15:21 5 77 15.2 1013.5 6.1 9.7 S 1015.0 11.2 15.2 0.0
19-10-2021 15:26 5 77 14.9 1013.6 2.5 3.6 S 1015.1 10.9 14.9 0.0
19-10-2021 15:31 5 77 14.9 1013.5 6.1 8.6 SW 1015.0 10.9 14.9 0.0
19-10-2021 15:36 5 77 15.0 1013.9 3.6 6.1 SW 1015.4 11.0 15.0 0.0
19-10-2021 15:41 5 78 15.3 1013.4 3.6 6.1 S 1014.9 11.5 15.3 0.0
19-10-2021 15:46 5 78 15.1 1013.3 5.0 7.2 SE 1014.8 11.3 15.1 0.0
19-10-2021 15:51 5 78 15.2 1013.1 5.0 8.6 SE 1014.6 11.4 15.2 0.0
19-10-2021 15:56 5 78 15.4 1013.1 5.0 6.1 SW 1014.6 11.6 15.4 0.0
19-10-2021 16:01 5 77 15.7 1013.1 6.1 8.6 S 1014.6 11.7 15.7 0.0
19-10-2021 16:06 5 77 15.4 1012.8 7.2 9.7 S 1014.3 11.4 14.5 0.0
19-10-2021 16:11 5 77 15.4 1012.8 2.5 5.0 SW 1014.3 11.4 15.4 0.0
19-10-2021 16:16 5 77 15.4 1012.7 6.1 9.7 S 1014.2 11.4 15.4 0.0
19-10-2021 16:21 5 77 15.7 1013.0 5.0 6.1 S 1014.5 11.7 15.7 0.0
19-10-2021 16:26 5 77 15.4 1012.6 8.6 9.7 S 1014.1 11.4 13.9 0.0
19-10-2021 16:31 5 77 15.3 1012.8 3.6 5.0 SW 1014.3 11.3 15.3 0.0
19-10-2021 16:36 5 77 15.3 1013.1 3.6 5.0 S 1014.6 11.3 15.3 0.0
19-10-2021 16:41 5 78 15.3 1012.8 1.1 2.5 S 1014.3 11.5 15.3 0.0
19-10-2021 16:46 5 78 15.2 1012.6 3.6 6.1 S 1014.1 11.4 15.2 0.0
19-10-2021 16:51 5 78 15.2 1012.8 3.6 6.1 S 1014.3 11.4 15.2 0.0
19-10-2021 16:56 5 78 15.2 1012.7 2.5 5.0 S 1014.2 11.4 15.2 0.0
19-10-2021 17:01 5 79 15.3 1012.5 5.0 8.6 SSW 1014.0 11.7 15.3 0.0
19-10-2021 17:06 5 79 15.1 1012.7 5.0 8.6 NNE 1014.2 11.5 15.1 0.0
19-10-2021 17:11 5 79 15.0 1012.6 3.6 5.0 SSE 1014.1 11.4 15.0 0.0
19-10-2021 17:16 5 79 15.0 1012.4 7.2 11.2 S 1013.9 11.4 14.1 0.0
19-10-2021 17:21 5 79 15.2 1012.6 3.6 5.0 SE 1014.1 11.6 15.2 0.0
19-10-2021 17:26 5 78 15.0 1012.3 5.0 7.2 S 1013.8 11.2 15.0 0.0
19-10-2021 17:31 5 79 14.9 1012.5 5.0 6.1 S 1014.0 11.3 14.9 0.0
19-10-2021 17:36 5 79 14.9 1012.2 5.0 7.2 SWW 1013.7 11.3 14.9 0.0
19-10-2021 17:41 5 79 15.1 1012.0 3.6 6.1 NE 1013.5 11.5 15.1 0.0
19-10-2021 17:46 5 79 14.8 1012.2 3.6 5.0 SW 1013.7 11.2 14.8 0.0
19-10-2021 17:51 5 79 14.8 1012.0 5.0 6.1 SW 1013.5 11.2 14.8 0.0
19-10-2021 17:56 5 79 14.8 1011.8 3.6 6.1 SSW 1013.3 11.2 14.8 0.0
19-10-2021 18:01 5 80 14.9 1011.8 3.6 5.0 S 1013.3 11.5 14.9 0.0
19-10-2021 18:06 5 80 14.8 1011.8 7.2 9.7 SE 1013.3 11.4 13.9 0.0
19-10-2021 18:11 5 80 14.8 1011.9 7.2 11.2 SW 1013.4 11.4 13.9 0.0
19-10-2021 18:16 5 80 14.9 1011.7 7.2 11.2 SE 1013.2 11.5 14.0 0.0
19-10-2021 18:21 5 80 15.0 1011.6 8.6 12.2 S 1013.1 11.6 13.4 0.0
19-10-2021 18:26 5 80 14.8 1011.5 6.1 9.7 S 1013.0 11.4 14.8 0.0
19-10-2021 18:31 5 80 14.8 1011.7 6.1 13.3 S 1013.2 11.4 14.8 0.0
19-10-2021 18:36 5 80 14.8 1011.5 6.1 11.2 S 1013.0 11.4 14.8 0.0
19-10-2021 18:41 5 80 14.9 1011.4 9.7 13.3 SE 1012.9 11.5 12.9 0.0
19-10-2021 18:46 5 80 14.7 1011.6 7.2 12.2 SE 1013.1 11.3 13.8 0.0
19-10-2021 18:51 5 81 14.7 1011.7 7.2 9.7 S 1013.2 11.5 13.8 0.0
19-10-2021 18:56 5 81 14.6 1011.5 6.1 9.7 S 1013.0 11.4 14.6 0.0
19-10-2021 19:01 5 82 14.6 1011.6 8.6 12.2 S 1013.1 11.6 13.0 0.0
19-10-2021 19:06 5 82 14.4 1011.4 7.2 9.7 S 1012.9 11.4 13.5 0.0
19-10-2021 19:11 5 82 14.4 1011.4 2.5 3.6 S 1012.9 11.4 14.4 0.0
19-10-2021 19:16 5 83 14.4 1011.3 5.0 7.2 SSW 1012.8 11.6 14.4 0.0
19-10-2021 19:21 5 83 14.4 1011.2 5.0 6.1 SE 1012.7 11.6 14.4 0.0
19-10-2021 19:26 5 83 14.4 1011.6 5.0 6.1 W 1013.1 11.6 14.4 0.0
19-10-2021 19:31 5 83 14.3 1011.5 5.0 9.7 S 1013.0 11.5 14.3 0.0
19-10-2021 19:36 5 84 14.3 1010.9 6.1 8.6 S 1012.4 11.7 14.3 0.0
19-10-2021 19:41 5 84 14.3 1010.8 2.5 3.6 S 1012.3 11.7 14.3 0.0
19-10-2021 19:46 5 84 14.2 1011.0 6.1 8.6 S 1012.5 11.6 14.2 0.0
19-10-2021 19:51 5 85 14.2 1010.9 2.5 5.0 S 1012.4 11.7 14.2 0.0
19-10-2021 19:56 5 85 14.2 1011.0 3.6 6.1 S 1012.5 11.7 14.2 0.0
19-10-2021 20:01 5 86 14.2 1010.8 5.0 11.2 SW 1012.3 11.9 14.2 0.0
19-10-2021 20:06 5 86 14.3 1010.9 9.7 14.8 W 1012.4 12.0 12.2 0.0
19-10-2021 20:11 5 86 14.3 1010.7 7.2 9.7 S 1012.2 12.0 13.4 0.0
19-10-2021 20:16 5 86 14.3 1010.9 11.2 13.3 W 1012.4 12.0 11.6 0.0
19-10-2021 20:21 5 87 14.3 1010.5 8.6 11.2 S 1012.0 12.2 12.7 0.0
19-10-2021 20:26 5 87 14.3 1010.6 11.2 14.8 S 1012.1 12.2 11.6 0.0
19-10-2021 20:31 5 87 14.3 1010.5 7.2 9.7 SE 1012.0 12.2 13.4 0.0
19-10-2021 20:36 5 87 14.3 1010.6 3.6 6.1 S 1012.1 12.2 14.3 0.3
19-10-2021 20:41 5 88 14.3 1010.3 6.1 9.7 S 1011.8 12.4 14.3 0.3
19-10-2021 20:46 5 88 14.2 1010.2 8.6 12.2 S 1011.7 12.3 12.6 0.3
19-10-2021 20:51 5 89 14.2 1010.2 6.1 12.2 NW 1011.7 12.4 14.2 0.6
19-10-2021 20:56 5 90 14.2 1010.3 11.2 17.3 SW 1011.8 12.6 11.5 0.9
19-10-2021 21:01 5 90 14.2 1010.3 6.1 8.6 SW 1011.8 12.6 14.2 1.5
19-10-2021 21:06 5 91 14.1 1010.2 9.7 14.8 W 1011.7 12.7 12.0 1.8
19-10-2021 21:11 5 91 14.1 1010.0 8.6 11.2 SSW 1011.5 12.7 12.5 2.7
19-10-2021 21:16 5 91 14.1 1010.0 3.6 6.1 NW 1011.5 12.7 14.1 2.7
19-10-2021 21:21 5 92 14.1 1010.0 5.0 7.2 S 1011.5 12.8 14.1 2.7
19-10-2021 21:26 5 92 14.1 1010.0 5.0 7.2 S 1011.5 12.8 14.1 2.7
19-10-2021 21:31 5 92 14.2 1010.0 7.2 9.7 SW 1011.5 12.9 13.3 2.7
19-10-2021 21:36 5 93 14.2 1009.9 5.0 7.2 SW 1011.4 13.1 14.2 2.4
19-10-2021 21:41 5 93 14.2 1009.7 11.2 14.8 W 1011.2 13.1 11.5 2.4
19-10-2021 21:46 5 93 14.3 1009.8 9.7 12.2 SW 1011.3 13.2 12.2 2.4
19-10-2021 21:51 5 94 14.4 1009.7 5.0 6.1 SW 1011.2 13.5 14.4 2.1
19-10-2021 21:56 5 94 14.4 1009.5 3.6 7.2 S 1011.0 13.5 14.4 1.8
19-10-2021 22:01 5 94 14.6 1009.6 3.6 5.0 W 1011.1 13.7 14.6 1.2
19-10-2021 22:06 5 94 14.7 1009.7 5.0 8.6 W 1011.2 13.8 14.7 0.9
19-10-2021 22:11 5 95 14.7 1009.5 3.6 8.6 S 1011.0 13.9 14.7 0.0
19-10-2021 22:16 5 95 14.8 1009.4 3.6 6.1 SE 1010.9 14.0 14.8 0.0
19-10-2021 22:21 5 95 14.9 1009.5 3.6 6.1 SSE 1011.0 14.1 14.9 0.0
19-10-2021 22:26 5 95 15.0 1009.4 9.7 13.3 S 1010.9 14.2 13.0 0.0
19-10-2021 22:31 5 95 15.0 1009.7 7.2 11.2 NNW 1011.2 14.2 14.1 0.0
19-10-2021 22:36 5 95 15.1 1009.5 6.1 8.6 S 1011.0 14.3 15.1 0.0
19-10-2021 22:41 5 95 15.1 1009.5 3.6 6.1 SW 1011.0 14.3 15.1 0.0
19-10-2021 22:46 5 95 15.2 1009.6 5.0 8.6 S 1011.1 14.4 15.2 0.0
19-10-2021 22:51 5 95 15.3 1009.2 2.5 5.0 SW 1010.7 14.5 15.3 0.0
19-10-2021 22:56 5 94 15.3 1009.2 5.0 8.6 SE 1010.7 14.4 15.3 0.0
19-10-2021 23:01 5 94 15.4 1009.4 7.2 12.2 SW 1010.9 14.5 14.5 0.0
19-10-2021 23:06 5 94 15.4 1009.2 7.2 9.7 S 1010.7 14.5 14.5 0.0
19-10-2021 23:11 5 93 15.5 1009.3 6.1 8.6 NW 1010.8 14.4 15.5 0.0
19-10-2021 23:16 5 93 15.5 1009.5 7.2 8.6 SW 1011.0 14.4 14.6 0.0
19-10-2021 23:21 5 93 15.5 1009.4 5.0 8.6 NW 1010.9 14.4 15.5 0.0
19-10-2021 23:26 5 93 15.6 1009.4 6.1 7.2 W 1010.9 14.5 15.6 0.0
19-10-2021 23:31 5 93 15.7 1009.1 6.1 9.7 W 1010.6 14.6 15.7 0.0
19-10-2021 23:36 5 92 15.7 1009.1 3.6 5.0 W 1010.6 14.4 15.7 0.0
19-10-2021 23:41 5 92 15.8 1009.2 2.5 3.6 S 1010.7 14.5 15.8 0.0
19-10-2021 23:46 5 92 15.8 1008.8 6.1 11.2 SW 1010.3 14.5 15.8 0.0
19-10-2021 23:51 5 92 15.9 1008.8 5.0 7.2 NE 1010.3 14.6 15.9 0.0
19-10-2021 23:56 5 92 15.9 1008.9 5.0 7.2 SW 1010.4 14.6 15.9 0.0

 

 Tagesdaten                                                                      Tabelle: 08 UHR

STATIONHÖHELUFTD.TEMP.T-MinT-MaxU%RR1RR12SSSDDFFFXWetter+WolkenBöen
UFS TW Ems 0 1013.4 14.5 14.0 15.0 94 ---- --- --- S 40 --- --- ---
UFS Deutsche Bucht 0 1014.6 14.2 13.6 14.6 89 ---- --- --- S 32 --- --- ---
Helgoland 4 1014.9 13.8 13.3 14.1 89 0.0 0 0 SW 25 35 --- ---
List/Sylt 26 1014.4 12.3 11.7 12.6 95 0.0 0 0 S 25 33 Dunst oder flacher Nebel ---
Schleswig 43 1015.8 10.6 9.7 11.4 86 0.0 0 0 S 14 23 --- ---
Leuchtturm Kiel 5 1016.2 11.3 11.1 12.6 82 ---- --- --- S 29 40 --- ---
Kiel 27 1016.3 11.0 10.8 12.4 84 0.0 0 0 S 12 21 --- ---
Fehmarn 3 1016.7 10.9 10.3 12.4 85 0.0 0 0 S 15 23 --- ---
Arkona 42 1017.8 10.1 9.9 10.8 89 0.0 3 0 S 31 36 --- ---
Norderney 11 1015.0 12.5 11.7 12.6 90 0.0 0 0 S 19 28 leichter Regen ---
Leuchtt. Alte Weser 32 1015.4 12.7 12.2 13.0 85 ---- --- --- S 32 --- --- ---
Cuxhaven 5 1016.2 12.7 11.2 12.7 84 0.0 0 0 S 13 32 --- ---
Hamburg-Flh. 11 1017.3 11.0 9.1 12.5 85 0.0 0 0 S 13 18 Regen ---
Schwerin 59 1018.2 9.2 8.5 11.6 90 0.0 0 0 S 12 23 --- ---
Rostock 4 1017.6 10.2 9.9 12.0 83 0.0 0 0 S 12 24 --- ---
Greifswald 2 1018.9 9.1 8.7 10.7 91 0.0 0 0 S 6 17 --- ---
Emden 0 1015.6 12.7 10.9 12.8 89 0.0 0 0 S 12 24 --- ---
Bremen-Flh. 5 1017.2 11.2 8.7 11.8 85 0.0 0 0 S 11 18 bewölkt ---
Lüchow 17 1019.2 10.1 7.7 10.8 87 0.0 0 0 S 6 11 --- ---
Marnitz 81 1018.9 9.4 8.3 12.0 86 0.0 0 0 SW 11 19 --- ---
Waren 70 1019.5 9.2 9.0 12.3 88 0.0 0 0 S 13 20 --- ---
Neuruppin 38 1020.4 7.4 6.9 11.4 95 0.0 0 0 S 2 7 --- ---
Angermünde 56 1020.4 7.7 7.3 12.3 94 0.0 0 0 SO 10 13 --- ---
Münster/Osnabr.-Flh. 48 1018.0 13.1 10.7 13.1 83 0.0 0 0 S 10 18 stark bewölkt ---
Hannover-Flh. 59 1018.7 11.2 10.0 12.0 83 0.0 0 0 S 14 23 stark bewölkt ---
Magdeburg 76 1020.2 10.2 8.2 11.3 86 0.0 0 0 S 5 10 --- ---
Potsdam 81 1020.8 8.6 7.9 10.2 89 0.0 0 0 S 12 30 --- ---
Berlin-Brandenburg-Flgh. 46 1020.9 8.0 7.4 12.0 91 0.0 0 0 S 11 13 stark bewölkt ---
Berlin-Tempelhof 48 1020.7 8.5 8.4 13.0 88 0.0 0 --- S 9 15 --- ---
Berlin-Dahlem 51 1020.9 8.4 7.7 10.6 --- ---- 0 0 S 11 --- stark bewölkt ---
Lindenberg 91 1021.3 8.8 7.6 11.2 80 0.0 0 0 S 11 22 --- ---
Düsseldorf-Flh. 45 1018.7 12.0 11.1 12.3 99 0.0 3 0 S 22 40 leichter Regen ---
Essen 150 1018.7 12.1 11.4 12.7 99 0.0 1 0 S 12 30 Regen ---
Kahler Asten 839 ------ 7.8 4.7 9.0 99 0.5 1 0 SW 24 42 leichter Regen ---
Bad Lippspringe 157 1019.0 12.8 9.1 13.3 80 0.0 0 0 S 7 14 --- ---
Fritzlar 174 1022.1 8.8 6.9 9.7 88 ---- 0 0 S 11 --- leichter Regen ---
Brocken 1142 ------ --- --- --- --- ---- --- --- -- --- --- --- ---
Leipzig-Flh. 142 1022.1 9.4 8.3 11.6 83 0.0 0 0 SW 13 22 bedeckt ---
Dresden-Flh. 227 1022.7 8.8 7.0 11.9 75 0.0 0 0 SO 9 22 stark bewölkt ---
Cottbus 69 1022.2 8.8 5.9 8.9 81 0.0 0 0 S 6 11 --- ---
Görlitz 238 1023.9 9.7 8.5 11.3 71 0.0 0 0 SW 17 35 --- ---
Aachen 231 1018.4 13.8 12.8 14.2 95 0.1 1 0 SW 27 43 Niederschlag ---
Nürburg 485 1020.3 11.1 9.1 11.4 99 0.1 3 0 SW 12 29 Regen ---
Köln/Bonn-Flh. 92 1020.0 10.9 9.9 11.3 99 1.2 4 0 SO 13 21 leichter Regen ---
Gießen/Wettenberg 203 1022.6 7.8 5.1 8.0 99 1.0 1 0 SO 3 7 Regen ---
Wasserkuppe 921 ------ 7.8 4.8 8.9 89 0.0 0 0 SW 32 43 --- ---
Meiningen 450 1024.8 5.5 5.3 7.5 99 0.0 0 0 S 11 19 Nebel ---
Erfurt 316 1022.6 8.4 5.6 8.7 83 0.0 0 0 SW 12 18 stark bewölkt ---
Gera 311 1023.2 8.1 7.3 9.6 81 0.0 0 0 S 24 33 --- ---
Fichtelberg 1213 ------ 7.4 4.5 7.9 55 0.0 0 0 W 49 57 --- Windböen
Trier 265 1022.2 10.1 7.1 10.2 99 0.0 4 0 SW 14 20 Nebel ---
Hahn-Flh. 497 1021.5 11.4 5.4 11.4 96 0.4 6 0 S 17 28 leichter Regen ---
Frankfurt/M-Flh. 112 1023.9 7.1 4.5 8.8 94 0.8 1 0 SW 11 20 leichter Regen ---
OF-Wetterpark 119 1023.7 7.7 5.3 8.5 96 0.4 1 0 S 3 6 Regen ---
Würzburg 268 1025.5 4.8 3.3 7.9 99 0.5 1 0 SO 4 7 leichter Regen ---
Bamberg 239 1025.7 4.0 1.6 5.4 96 0.0 0 0 SW 2 5 Nebel ---
Hof 567 1024.2 8.0 5.1 8.8 78 0.0 0 --- S 10 27 --- ---
Weiden 438 1026.5 4.2 3.3 8.6 97 0.0 0 0 SO 3 9 Dunst oder flacher Nebel ---
Saarbrücken-Flh. 320 1023.8 9.8 4.4 10.0 98 1.0 4 0 SW 16 28 leichter Regen ---
Karlsruhe-Rheinst. 116 1024.8 7.6 6.8 8.0 100 0.0 1 0 S 2 8 leichter Regen ---
Mannheim 96 1024.8 8.5 4.0 9.7 97 2.7 3 --- S 8 17 Regen ---
Stuttgart-Flh. 371 1025.4 6.7 3.2 9.0 94 0.1 0 0 NO 2 5 Regen ---
Öhringen 276 1025.1 7.2 5.1 8.6 92 0.0 0 0 NW 2 5 --- ---
Nürnberg-Flh. 314 1025.7 5.9 3.3 8.8 96 0.0 0 0 O 8 13 Dunst oder flacher Nebel ---
Regensburg 366 1027.2 4.9 4.2 7.9 96 0.0 0 0 S 6 15 Dunst oder flacher Nebel ---
Straubing 351 1027.7 3.1 1.4 7.1 96 0.0 0 0 SW 5 9 Dunst oder flacher Nebel ---
Großer Arber 1436 ------ 7.1 2.9 8.4 59 0.0 0 0 SW 34 37 Niederschlag ---
Lahr 155 1024.7 8.7 6.0 9.0 96 0.0 0 0 SW 8 11 Regen ---
Freudenstadt 797 ------ 10.6 6.8 12.5 64 0.0 0 0 -- --- ---   ---
Stötten 734 1024.1 12.2 5.6 12.5 58 0.0 0 0 SW 9 17 --- ---
Augsburg 462 1027.1 4.6 3.2 7.8 96 0.0 0 0 SO 9 11 --- ---
München-Flh. 444 1028.5 1.5 0.7 6.8 98 0.0 0 0 W 2 8 Nebel ---
Fürstenzell 476 1027.8 3.7 3.1 9.1 95 0.0 0 0 O 6 9 --- ---
Feldberg/Schw. 1486 ------ 9.3 9.0 10.5 41 0.0 0 0 SW 44 57 Regen Windböen
Konstanz 443 1027.5 8.1 4.8 8.4 100 0.0 0 0 N 3 5 Nebel ---
Kempten 705 1027.7 6.3 2.4 6.8 77 0.0 0 0 SO 5 15 --- ---
Oberstdorf 806 ------ 4.3 0.4 7.5 91 0.0 0 0 SO 3 6 --- ---
Zugspitze 2960 ------ 0.2 -1.4 1.8 40 ---- --- 23 W 22 37 --- ---
Hohenpeißenberg 977 ------ 11.5 8.8 12.2 44 0.0 0 0 SW 17 24 --- ---

                                                                                                         Tabelle: 20 UHR 

STATIONHÖHELUFTD.TEMP.T-MinT-MaxU%RR1RR12SSSDDFFFXWetter+WolkenBöen
UFS TW Ems 0 1007.5 16.4 14.0 16.6 90 ---- --- --- SW 54 --- --- ---
UFS Deutsche Bucht 26 1008.7 16.4 13.5 16.8 87 ---- --- --- SW 43 --- --- ---
Helgoland 4 1008.9 16.3 13.5 16.3 90 0.0 4 0 SW 34 48 --- ---
List/Sylt 26 1006.3 14.9 12.3 15.0 100 0.2 8 0 SW 46 61 Regen Windböen
Schleswig 43 1009.2 14.8 10.6 14.8 97 1.2 6 0 SW 15 32 Regen ---
Leuchtturm Kiel 5 1009.1 14.0 11.1 14.1 97 ---- --- --- S 40 47 --- ---
Kiel 27 1009.6 14.5 11.0 14.7 98 0.7 2 0 S 17 29 Regen ---
Fehmarn 3 1010.2 13.7 10.8 14.6 97 1.9 2 0 S 17 30 Regen ---
Arkona 42 1012.3 12.4 9.6 12.4 91 0.0 0 0 SW 28 39 --- ---
Norderney 11 1009.9 15.9 12.1 16.3 86 0.0 0 0 SW 26 41 --- ---
Leuchtt. Alte Weser 32 1009.6 16.7 12.2 17.1 82 ---- --- --- SW 47 --- --- ---
Cuxhaven 5 1010.2 17.0 12.7 17.0 90 0.0 1 0 SW 20 44 --- ---
Hamburg-Flh 11 1011.7 15.6 11.0 15.6 97 0.2 1 0 SW 27 39 leichter Regen ---
Schwerin 59 1012.6 13.1 9.2 15.1 98 0.3 0 0 S 14 29 Regen ---
Rostock 4 1011.8 13.9 10.1 14.5 88 0.2 0 0 S 15 32 Regen ---
Greifswald 2 1013.2 13.8 9.1 13.9 83 0.0 0 0 S 12 23 --- ---
Emden 0 1010.8 16.8 12.5 17.6 85 0.0 1 0 SW 17 32 --- ---
Bremen-Flh. 5 1012.6 16.5 11.2 16.7 93 0.0 0 0 SW 19 29 leichter Regen ---
Lüchow 17 1014.1 14.3 10.1 16.7 90 0.0 0 0 S 12 21 Regen ---
Marnitz 81 1013.7 13.4 9.3 15.1 95 0.2 0 0 SW 13 28 Regen ---
Waren 70 1013.9 13.3 9.0 13.9 93 0.0 0 0 S 18 27 Regen ---
Neuruppin 38 1015.4 14.0 7.4 15.2 85 0.0 0 0 SW 10 21 --- ---
Angermünde 56 1015.2 14.0 7.7 15.6 81 0.0 0 0 S 11 18 --- ---
Münster/Osnabr.-Flh. 48 1014.9 17.3 12.8 17.4 92 0.0 0 0 SW 22 33 leichter Regen ---
Hannover-Flh. 59 1014.8 14.7 10.9 15.4 91 0.0 0 0 S 15 22 leichter Regen ---
Magdeburg 76 1016.1 14.8 10.2 17.0 83 0.0 0 0 SW 13 23 --- ---
Potsdam 81 1016.3 14.3 8.4 16.1 84 0.0 0 0 SW 16 34 --- ---
Berlin-Brandenburg-Flgh. 46 1016.3 15.4 7.9 16.9 78 0.0 0 0 SW 20 33 bedeckt ---
Berlin-Tempelhof 48 1015.7 15.3 8.4 16.7 77 0.0 0 --- SW 16 26 --- ---
Berlin-Dahlem 51 1015.7 14.9 8.3 16.3 --- ---- 0 0 S 18 --- stark bewölkt ---
Lindenberg 91 1016.8 15.2 8.5 16.3 75 0.0 0 0 SW 18 34 --- ---
Düsseldorf-Flh. 45 1016.5 16.4 12.0 17.7 89 0.0 1 0 S 17 22 gering bewölkt ---
Essen 150 1016.2 15.9 12.1 16.6 94 0.0 2 0 SW 13 31 wolkenlos ---
Kahler Asten 839 ------ 12.5 --- 12.6 100 0.0 1 0 SW 32 44 Nebel ---
Bad Lippspringe 157 1016.1 16.4 12.3 16.6 90 0.0 2 0 SW 10 17 --- ---
Fritzlar 174 1018.6 12.4 8.7 12.5 96 ---- 0 0 S 11 --- leichter Regen ---
Brocken 1142 ------ 8.9 6.9 10.0 100 0.2 1 0 SW 55 71 Nebel Sturmböen
Leipzig-Flh. 142 1017.9 14.0 9.4 16.7 80 0.0 0 0 SW 27 36 Regenschauer ---
Dresden-Flh. 227 1018.9 14.9 8.3 18.0 75 0.0 0 0 S 15 33 bedeckt ---
Cottbus 69 1017.9 15.7 8.8 18.6 72 0.0 0 --- SW 17 36 --- ---
Görlitz 238 1019.1 13.7 9.5 14.4 67 0.0 0 0 S 31 52 --- Windböen
Aachen 231 1016.2 16.6 13.8 17.5 82 0.0 1 0 S 28 39 wolkenlos ---
Nürburg 485 1018.3 14.2 11.1 15.7 91 0.0 0 0 SW 14 26 wolkenlos ---
Köln/Bonn-Flh. 92 1017.8 15.3 10.9 17.8 92 0.0 0 0 SO 10 17 gering bewölkt ---
Gießen/Wettenberg 203 1019.7 11.6 7.8 12.3 99 0.0 1 0 SO 3 7 Dunst oder flacher Nebel ---
Wasserkuppe 921 ------ 10.9 7.5 10.9 100 0.0 1 0 SW 31 42 Nebel ---
Meiningen 450 1021.0 10.6 5.5 10.6 98 0.0 1 0 S 12 24 Dunst oder flacher Nebel ---
Erfurt 316 1018.7 12.6 8.3 15.0 87 0.0 0 0 SW 24 30 bedeckt ---
Gera 311 1019.1 13.0 8.0 14.9 84 0.0 0 0 SW 28 38 Regen ---
Fichtelberg 1213 ------ 7.4 6.5 10.4 100 0.0 0 0 W 55 67 Nebel Sturmböen
Trier 265 1019.4 14.9 10.1 19.9 86 0.0 1 0 SW 15 18 --- ---
Hahn-Flh. 497 1019.2 14.8 11.3 17.5 79 0.0 1 0 SW 20 30 --- ---
Frankfurt/M-Flh. 112 1020.5 9.9 7.1 14.5 95 0.0 6 0 SW 7 13 Nebel ---
OF-Wetterpark 119 1020.4 11.0 7.7 15.7 98 0.0 4 0 S 2 3 Nebel ---
Würzburg 268 1021.7 12.8 4.8 14.9 86 0.0 2 0 S 8 12 wolkenlos ---
Bamberg 239 1021.9 12.1 3.9 12.3 94 0.0 3 0 SO 6 13 --- ---
Hof 567 1021.1 11.1 7.5 11.8 94 0.0 0 --- S 12 28 --- ---
Weiden 438 1022.9 10.9 4.2 11.4 93 0.0 0 0 S 9 17 --- ---
Saarbrücken-Flh. 320 1020.9 15.0 9.8 18.0 78 0.0 2 0 SW 10 18 gering bewölkt ---
Karlsruhe-Rheinst. 116 1021.3 12.8 7.6 19.3 91 0.0 0 0 SO 4 7 --- ---
Mannheim 96 1020.8 14.0 8.5 17.1 82 0.0 10 0 S 9 17 --- ---
Stuttgart-Flh. 371 1022.5 11.8 6.7 15.9 91 0.0 1 0 O 4 5 gering bewölkt ---
Öhringen 276 1021.7 13.9 7.2 18.5 73 0.0 1 0 SO 6 11 --- ---
Nürnberg-Flh. 314 1022.6 11.0 5.8 12.7 95 0.0 2 0 O 11 15 gering bewölkt ---
Regensburg 366 1024.1 10.6 4.9 11.7 94 0.0 1 0 SO 11 24 --- ---
Straubing 351 1024.6 10.9 3.0 12.8 89 0.0 0 0 O 12 18 Regen ---
Großer Arber 1436 ------ 6.7 4.6 8.7 100 0.2 0 0 SW 47 61 Niederschlag Windböen
Lahr 155 1021.5 15.5 8.7 20.9 62 0.0 0 0 S 8 14 --- ---
Freudenstadt 797 ------ 13.8 9.9 16.9 46 0.0 0 0 -- --- ---   ---
Stötten 734 1022.9 12.5 11.1 13.6 72 0.0 0 0 SW 17 25 --- ---
Augsburg 462 1023.9 12.7 4.5 15.5 77 0.0 0 0 SO 5 17 --- ---
München-Flh. 444 1024.0 13.7 1.3 15.2 75 0.0 0 0 S 15 28 stark bewölkt ---
Fürstenzell 476 1025.4 11.0 3.8 12.3 83 0.0 0 0 S 4 12 Regen ---
Feldberg/Schw. 1486 ------ 12.0 9.1 12.3 36 0.0 0 0 SW 40 51 --- Windböen
Konstanz 443 1025.0 9.9 8.0 12.9 94 0.0 0 0 N 3 7 --- ---
Kempten 705 1024.3 12.4 5.7 15.2 80 0.0 0 0 S 6 13 --- ---
Oberstdorf 806 ------ 12.8 4.3 15.2 72 0.0 0 0 S 9 21 --- ---
Zugspitze 2960 ------ 3.0 -0.4 3.3 100 ---- --- --- N 13 34 Nebel ---
Hohenpeißenberg 977 ------ 13.0 11.5 14.0 65 0.0 0 0 S 13 22 --- ---

 

  • Wetterzustand
  • Windrichtung und -geschwindigkeit
  • Luftdruck
  • relative Luftfeuchtigkeit
  • Sichtweite
  • Gesamtbedeckungsgrad
  • Niederschlag
  • Sonnenscheindauer

 Höhe:     m über NN
Luftd.:   auf Meereshöhe reduzierter Luftdruck in hPa
TEMP.:   Lufttemperatur in Grad Celsius
T-MIN:   Minimumtemperatur der Luft in 2m Höhe in Grad Celsius, von 18 UTC Vortag bis 06 UTC heute
T-MAX:  Maximumtemperatur der Luft in 2m Höhe in Grad Celsius, von 18 UTC Vortag bis 06 UTC heute
RR1:     Niederschlagsmenge, einstündig, mm ist gleich Liter pro
RR12:   Niederschlagsmenge, 12 stündig, 18 UTC Vortag bis 06 UTC heute in mm ist gleich Liter pro
SSS:     Gesamtschneehöhe
DD:      Windrichtung
FF:       Windgeschwindigkeit letztes 10-Minutenmittel in km/h
FX:       höchste Windspitze während der letzten Stunde in km/h
---:      Wert nicht vorhanden

 

2009-2021

Unwetterwarnungen

Unwetterwarnungen

 

  Radarbild           

aktueller Radarfilm Deutschland

Mecklenburg Vorpommern/

Brandenburg

aktuelles Wetter und aktuelle Temperatur Region Nordost

Waldbrandgefahr   

Deutschlandkarte mit dem Tageswert des Waldbrand-Gefahrenindex WBI, heute